Time;durP1;ratioP1;P1;durP2;ratioP2;P2;SDS_P1;SDS_P2;PMS_P1;PMS_P2;Temp;Humidity;BMP_temperature;BMP_pressure;BME280_temperature;BME280_humidity;BME280_pressure;Samples;Min_cycle;Max_cycle;Signal;HPM_P1;HPM_P2
2022/12/10 00:00:36;;;;;;;30.13;11.45;;;2.70;99.90;;;;;;4997195;28;20097;-69
2022/12/10 00:03:02;;;;;;;23.92;10.30;;;2.80;99.90;;;;;;4996055;28;20029;-69
2022/12/10 00:05:28;;;;;;;22.17;10.07;;;2.80;99.90;;;;;;4996927;28;20028;-69
2022/12/10 00:07:53;;;;;;;23.52;10.25;;;2.60;99.90;;;;;;4996879;28;20110;-68
2022/12/10 00:10:19;;;;;;;20.52;9.10;;;2.50;99.90;;;;;;4997489;28;20029;-68
2022/12/10 00:12:44;;;;;;;22.55;9.07;;;2.60;99.90;;;;;;4995936;28;20034;-68
2022/12/10 00:15:10;;;;;;;26.25;10.18;;;2.50;99.90;;;;;;4996543;28;20023;-68
2022/12/10 00:17:36;;;;;;;21.33;9.45;;;2.60;99.90;;;;;;4996270;28;20027;-68
2022/12/10 00:20:02;;;;;;;20.55;9.60;;;2.60;99.90;;;;;;4997918;28;20121;-69
2022/12/10 00:22:28;;;;;;;22.83;10.07;;;2.70;99.90;;;;;;4995678;28;20041;-69
2022/12/10 00:24:53;;;;;;;26.55;10.50;;;2.60;99.90;;;;;;4995517;28;20022;-68
2022/12/10 00:27:19;;;;;;;23.33;10.35;;;2.60;99.90;;;;;;4996148;28;20542;-68
2022/12/10 00:29:44;;;;;;;26.27;10.48;;;2.50;99.90;;;;;;4995515;28;20121;-69
2022/12/10 00:32:10;;;;;;;23.40;10.23;;;2.50;99.90;;;;;;4996227;28;20031;-69
2022/12/10 00:34:35;;;;;;;25.15;10.45;;;2.50;99.90;;;;;;4997448;28;20018;-69
2022/12/10 00:37:01;;;;;;;24.38;10.27;;;2.40;99.90;;;;;;4995620;28;20068;-69
2022/12/10 00:39:26;;;;;;;24.73;10.75;;;2.40;99.90;;;;;;4997163;28;20106;-69
2022/12/10 00:41:52;;;;;;;27.27;10.50;;;2.40;99.90;;;;;;4996354;28;20030;-69
2022/12/10 00:44:18;;;;;;;25.55;10.38;;;2.30;99.90;;;;;;4997790;28;20097;-70
2022/12/10 00:46:44;;;;;;;25.20;10.18;;;2.40;99.90;;;;;;4997961;28;20034;-69
2022/12/10 00:49:10;;;;;;;23.23;9.93;;;2.30;99.90;;;;;;4996391;28;20027;-69
2022/12/10 00:51:37;;;;;;;27.52;11.77;;;2.20;99.90;;;;;;4994875;28;20026;-69
2022/12/10 00:54:03;;;;;;;24.70;10.07;;;2.30;99.90;;;;;;4996099;28;20042;-69
2022/12/10 00:56:32;;;;;;;23.85;10.10;;;2.30;99.90;;;;;;4995853;28;20026;-69
2022/12/10 00:58:58;;;;;;;21.42;8.90;;;2.40;99.90;;;;;;4994286;28;20076;-69
2022/12/10 01:01:38;;;;;;;29.13;10.65;;;2.40;99.90;;;;;;4994589;28;20516;-69
2022/12/10 01:04:08;;;;;;;22.48;9.88;;;2.50;99.90;;;;;;4995630;28;20030;-69
2022/12/10 01:06:43;;;;;;;22.15;9.70;;;2.60;99.90;;;;;;4995635;28;20023;-69
2022/12/10 01:09:12;;;;;;;20.73;9.07;;;2.60;99.90;;;;;;4995744;28;20058;-69
2022/12/10 01:11:40;;;;;;;23.58;9.75;;;2.60;99.90;;;;;;4994467;28;20026;-69
2022/12/10 01:14:08;;;;;;;22.77;9.27;;;2.50;99.90;;;;;;4995429;28;20509;-69
2022/12/10 01:16:34;;;;;;;26.23;10.25;;;2.50;99.90;;;;;;4994575;28;20034;-69
2022/12/10 01:19:00;;;;;;;22.15;9.73;;;2.50;99.90;;;;;;4994287;28;20022;-69
2022/12/10 01:21:27;;;;;;;19.77;9.48;;;2.40;99.90;;;;;;4996586;28;20022;-69
2022/12/10 01:23:54;;;;;;;26.45;10.93;;;2.40;99.90;;;;;;4995903;28;20026;-69
2022/12/10 01:26:23;;;;;;;23.90;9.55;;;2.30;99.90;;;;;;4994056;28;20105;-69
2022/12/10 01:28:49;;;;;;;26.20;10.48;;;2.10;99.90;;;;;;4993896;28;20023;-69
2022/12/10 01:31:24;;;;;;;28.95;10.48;;;2.10;99.90;;;;;;4995344;28;20038;-69
2022/12/10 01:33:50;;;;;;;22.92;9.30;;;2.00;99.90;;;;;;4994455;28;20022;-69
2022/12/10 01:36:20;;;;;;;21.48;8.88;;;1.90;99.90;;;;;;4993963;28;20101;-69
2022/12/10 01:38:46;;;;;;;23.77;9.27;;;1.70;99.90;;;;;;4994989;28;20022;-69
2022/12/10 01:41:19;;;;;;;27.73;10.73;;;1.70;99.90;;;;;;4995098;28;20033;-69
2022/12/10 01:44:09;;;;;;;23.75;9.13;;;1.60;99.90;;;;;;4995211;28;20367;-69
2022/12/10 01:47:16;;;;;;;24.02;8.90;;;1.70;99.90;;;;;;4995724;28;20049;-69
2022/12/10 01:49:42;;;;;;;24.20;9.43;;;1.80;99.90;;;;;;4999208;28;20026;-68
2022/12/10 01:52:11;;;;;;;20.98;8.68;;;1.80;99.90;;;;;;4994252;28;20026;-69
2022/12/10 01:54:40;;;;;;;21.38;8.50;;;1.90;99.90;;;;;;4994953;28;20019;-69
2022/12/10 01:57:22;;;;;;;24.25;9.43;;;2.00;99.90;;;;;;4994694;28;20057;-68
2022/12/10 01:59:53;;;;;;;21.27;9.55;;;2.00;99.90;;;;;;4993530;28;20030;-69
2022/12/10 02:02:36;;;;;;;21.50;8.55;;;2.10;99.90;;;;;;4993670;28;20096;-69
2022/12/10 02:05:13;;;;;;;26.48;10.45;;;2.10;99.90;;;;;;4994958;28;20030;-69
2022/12/10 02:07:53;;;;;;;21.75;8.95;;;2.10;99.90;;;;;;4994781;28;20088;-69
2022/12/10 02:10:24;;;;;;;22.38;8.63;;;2.10;99.90;;;;;;4994856;28;20105;-69
2022/12/10 02:13:21;;;;;;;23.35;9.60;;;2.10;99.90;;;;;;4993777;28;20081;-69
2022/12/10 02:15:56;;;;;;;22.27;8.40;;;2.10;99.90;;;;;;4996956;28;20019;-69
2022/12/10 02:18:37;;;;;;;19.40;9.55;;;2.20;99.90;;;;;;4994829;28;20027;-69
2022/12/10 02:21:29;;;;;;;21.60;8.73;;;2.20;99.90;;;;;;4995921;28;20026;-69
2022/12/10 02:24:02;;;;;;;23.58;9.32;;;2.20;99.90;;;;;;4994745;28;20030;-69
2022/12/10 02:27:00;;;;;;;24.35;10.00;;;2.30;99.90;;;;;;4994271;28;20028;-69
2022/12/10 02:29:28;;;;;;;20.77;8.93;;;2.40;99.90;;;;;;4995191;28;20029;-69
2022/12/10 02:32:00;;;;;;;20.85;8.73;;;2.40;99.90;;;;;;4994235;28;20023;-69
2022/12/10 02:34:30;;;;;;;20.20;8.98;;;2.50;99.90;;;;;;4993521;28;20022;-69
2022/12/10 02:37:00;;;;;;;21.63;9.15;;;2.50;99.90;;;;;;4994971;28;20035;-69
2022/12/10 02:39:31;;;;;;;21.55;8.63;;;2.30;99.90;;;;;;4994148;28;20113;-69
2022/12/10 02:41:59;;;;;;;25.40;10.02;;;2.20;99.90;;;;;;4994026;28;20138;-69
2022/12/10 02:44:27;;;;;;;25.20;10.63;;;2.30;99.90;;;;;;4992906;28;20038;-69
2022/12/10 02:46:56;;;;;;;26.23;9.52;;;2.30;99.90;;;;;;4994175;28;20058;-69
2022/12/10 02:49:23;;;;;;;22.42;9.00;;;2.30;99.90;;;;;;4992806;28;20022;-69
2022/12/10 02:51:49;;;;;;;19.85;8.88;;;2.40;99.90;;;;;;4994020;28;20030;-69
2022/12/10 02:54:43;;;;;;;22.13;9.88;;;2.50;99.90;;;;;;4998364;28;20034;-69
2022/12/10 02:57:27;;;;;;;22.05;9.52;;;2.50;99.90;;;;;;4995321;28;20034;-69
2022/12/10 03:00:34;;;;;;;26.83;9.98;;;2.30;99.90;;;;;;4994317;28;20038;-69
2022/12/10 03:03:22;;;;;;;28.52;11.13;;;2.30;99.90;;;;;;4956448;28;20043;-69
2022/12/10 03:06:16;;;;;;;23.92;9.90;;;2.20;99.90;;;;;;4964857;28;20039;-69
2022/12/10 03:08:53;;;;;;;21.48;9.35;;;2.30;99.90;;;;;;4956951;28;20034;-69
2022/12/10 03:11:23;;;;;;;24.20;9.93;;;2.20;99.90;;;;;;4956592;28;20023;-69
2022/12/10 03:13:55;;;;;;;25.00;9.68;;;2.20;99.90;;;;;;4972651;28;20035;-69
2022/12/10 03:16:22;;;;;;;23.85;9.93;;;2.20;99.90;;;;;;4956292;28;20019;-69
2022/12/10 03:18:56;;;;;;;26.42;10.23;;;2.10;99.90;;;;;;4956213;28;20098;-69
2022/12/10 03:21:24;;;;;;;23.40;8.95;;;2.00;99.90;;;;;;4972358;28;20066;-69
2022/12/10 03:23:51;;;;;;;22.30;9.05;;;1.90;99.90;;;;;;4972297;28;20031;-69
2022/12/10 03:26:19;;;;;;;22.42;9.63;;;1.90;99.90;;;;;;4955980;28;20038;-69
2022/12/10 03:28:56;;;;;;;22.33;9.15;;;2.00;99.90;;;;;;4973434;28;20042;-69
2022/12/10 03:31:22;;;;;;;25.88;9.57;;;2.10;99.90;;;;;;4976289;28;20026;-69
2022/12/10 03:33:48;;;;;;;23.58;9.85;;;2.10;99.90;;;;;;4976035;28;20117;-69
2022/12/10 03:36:16;;;;;;;21.63;8.88;;;2.10;99.90;;;;;;4975800;28;20026;-69
2022/12/10 03:38:42;;;;;;;22.77;10.02;;;2.00;99.90;;;;;;4965392;28;20038;-69
2022/12/10 03:41:08;;;;;;;24.25;9.85;;;2.00;99.90;;;;;;4995990;28;20480;-69
2022/12/10 03:43:34;;;;;;;22.55;9.32;;;2.00;99.90;;;;;;4997534;28;20037;-69
2022/12/10 03:45:59;;;;;;;24.02;10.85;;;2.00;99.90;;;;;;4995964;28;20026;-69
2022/12/10 03:48:25;;;;;;;23.58;9.07;;;2.00;99.90;;;;;;4996354;28;20085;-69
2022/12/10 03:50:50;;;;;;;22.27;10.35;;;2.00;99.90;;;;;;4995798;28;20027;-69
2022/12/10 03:53:16;;;;;;;21.17;9.60;;;2.00;99.90;;;;;;4996793;28;20058;-69
2022/12/10 03:55:41;;;;;;;20.88;9.70;;;2.00;99.90;;;;;;4995954;28;20077;-69
2022/12/10 03:58:07;;;;;;;20.45;9.15;;;2.10;99.90;;;;;;4995661;28;20081;-69
2022/12/10 04:00:32;;;;;;;24.50;9.30;;;2.20;99.90;;;;;;4997042;28;20030;-69
2022/12/10 04:02:58;;;;;;;23.48;10.32;;;2.30;99.90;;;;;;4996537;28;20077;-69
2022/12/10 04:05:23;;;;;;;25.20;9.68;;;2.40;99.90;;;;;;4995878;28;20069;-69
2022/12/10 04:07:49;;;;;;;21.75;10.27;;;2.50;99.90;;;;;;4996892;28;20031;-69
2022/12/10 04:10:14;;;;;;;23.20;9.45;;;2.40;99.90;;;;;;4995364;28;20026;-69
2022/12/10 04:12:40;;;;;;;21.73;10.25;;;2.10;99.90;;;;;;4997402;28;20470;-69
2022/12/10 04:17:51;;;;;;;20.55;9.52;;;2.30;99.90;;;;;;4996604;28;20129;-69
2022/12/10 04:28:29;;;;;;;17.88;8.60;;;2.40;99.90;;;;;;4996398;28;20033;-69
2022/12/10 04:30:54;;;;;;;22.77;9.15;;;2.50;99.90;;;;;;4996425;28;20026;-69
2022/12/10 04:33:20;;;;;;;22.67;9.63;;;2.50;99.90;;;;;;4994869;28;20018;-69
2022/12/10 04:35:45;;;;;;;19.75;9.25;;;2.60;99.90;;;;;;4995269;28;20027;-69
2022/12/10 04:38:11;;;;;;;22.75;9.20;;;2.40;99.90;;;;;;4995532;28;20031;-69
2022/12/10 04:40:36;;;;;;;19.88;8.95;;;2.30;99.90;;;;;;4994397;28;20023;-69
2022/12/10 04:43:02;;;;;;;21.60;9.75;;;2.10;99.90;;;;;;4996236;28;20150;-69
2022/12/10 04:45:27;;;;;;;22.00;9.40;;;2.10;99.90;;;;;;4996321;28;20031;-69
2022/12/10 04:47:53;;;;;;;22.23;8.95;;;2.10;99.90;;;;;;4994400;28;20030;-69
2022/12/10 04:50:18;;;;;;;20.77;9.15;;;2.30;99.90;;;;;;4995795;28;20029;-69
2022/12/10 04:52:44;;;;;;;19.38;9.35;;;2.40;99.90;;;;;;4995732;28;20034;-69
2022/12/10 04:55:09;;;;;;;20.55;7.93;;;2.30;99.90;;;;;;4995934;28;20061;-69
2022/12/10 04:57:35;;;;;;;19.88;8.02;;;2.20;99.90;;;;;;4994310;28;20034;-68
2022/12/10 05:00:00;;;;;;;17.45;8.35;;;2.20;99.90;;;;;;4994477;28;20022;-69
2022/12/10 05:02:26;;;;;;;20.67;8.68;;;2.30;99.90;;;;;;4994337;28;20049;-69
2022/12/10 05:04:51;;;;;;;18.38;8.10;;;2.30;99.90;;;;;;4994615;28;20027;-69
2022/12/10 05:07:17;;;;;;;19.70;8.70;;;2.50;99.90;;;;;;4994168;28;20078;-69
2022/12/10 05:09:42;;;;;;;17.92;7.75;;;2.40;99.90;;;;;;4995379;28;20022;-69
2022/12/10 05:12:08;;;;;;;21.13;8.95;;;2.50;99.90;;;;;;4995459;28;20018;-69
2022/12/10 05:14:33;;;;;;;22.60;8.50;;;2.20;99.90;;;;;;4995360;28;20020;-69
2022/12/10 05:16:59;;;;;;;19.25;9.23;;;2.30;99.90;;;;;;4995872;28;20054;-69
2022/12/10 05:19:27;;;;;;;19.42;8.13;;;2.30;99.90;;;;;;4994218;28;20034;-69
2022/12/10 05:24:37;;;;;;;22.23;9.95;;;2.40;99.90;;;;;;4995613;28;20042;-69
2022/12/10 05:27:03;;;;;;;20.73;8.90;;;2.40;99.90;;;;;;4993690;28;20022;-68
2022/12/10 05:29:29;;;;;;;20.00;9.15;;;2.50;99.90;;;;;;4993839;28;20367;-69
2022/12/10 05:31:55;;;;;;;17.70;8.90;;;2.40;99.90;;;;;;4995066;28;20022;-69
2022/12/10 05:34:20;;;;;;;19.35;8.13;;;2.40;99.90;;;;;;4994999;28;20061;-69
2022/12/10 05:36:46;;;;;;;22.38;8.85;;;2.40;99.90;;;;;;4994966;28;20053;-69
2022/12/10 05:39:11;;;;;;;17.80;8.45;;;2.40;99.90;;;;;;4995208;28;20033;-69
2022/12/10 05:41:38;;;;;;;16.27;8.48;;;2.30;99.90;;;;;;4993568;28;20019;-69
2022/12/10 05:44:04;;;;;;;18.58;8.07;;;2.30;99.90;;;;;;4994809;28;20030;-69
2022/12/10 05:46:32;;;;;;;17.83;8.32;;;2.40;99.90;;;;;;4993838;28;20022;-69
2022/12/10 05:48:59;;;;;;;19.45;8.77;;;2.40;99.90;;;;;;4993726;28;20109;-69
2022/12/10 05:51:28;;;;;;;17.33;7.65;;;2.30;99.90;;;;;;4992808;28;20030;-69
2022/12/10 05:53:56;;;;;;;18.98;8.13;;;2.40;99.90;;;;;;4993990;28;20023;-69
2022/12/10 05:56:23;;;;;;;18.50;8.80;;;2.30;99.90;;;;;;4994599;28;20022;-69
2022/12/10 05:58:51;;;;;;;16.38;7.55;;;2.30;99.90;;;;;;4993824;28;20177;-67
2022/12/10 06:01:22;;;;;;;20.73;8.55;;;2.40;99.90;;;;;;4994768;28;20033;-66
2022/12/10 06:03:49;;;;;;;14.52;7.43;;;2.40;99.90;;;;;;4993210;28;20026;-66
2022/12/10 06:06:24;;;;;;;18.27;7.75;;;2.40;99.90;;;;;;4993240;28;20501;-67
2022/12/10 06:08:50;;;;;;;17.40;8.20;;;2.40;99.90;;;;;;4992989;28;20441;-66
2022/12/10 06:11:16;;;;;;;18.55;8.18;;;2.40;99.90;;;;;;4994008;28;20077;-66
2022/12/10 06:13:42;;;;;;;17.40;8.20;;;2.50;99.90;;;;;;4994284;28;20023;-66
2022/12/10 06:16:10;;;;;;;17.05;7.53;;;2.50;99.90;;;;;;4994228;28;20022;-66
2022/12/10 06:18:36;;;;;;;15.55;7.78;;;2.50;99.90;;;;;;4993261;28;20030;-67
2022/12/10 06:21:09;;;;;;;15.73;7.85;;;2.60;99.90;;;;;;4993619;28;20033;-66
2022/12/10 06:23:35;;;;;;;18.63;8.32;;;2.50;99.90;;;;;;4992961;28;20027;-66
2022/12/10 06:26:16;;;;;;;16.08;7.32;;;2.50;99.90;;;;;;4995072;28;20077;-66
2022/12/10 06:28:44;;;;;;;21.25;8.43;;;2.50;99.90;;;;;;4994013;28;20041;-66
2022/12/10 06:31:10;;;;;;;16.17;8.32;;;2.50;99.90;;;;;;4994289;28;20489;-66
2022/12/10 06:33:36;;;;;;;16.95;8.13;;;2.50;99.90;;;;;;4994027;28;20023;-66
2022/12/10 06:36:06;;;;;;;17.13;8.70;;;2.50;99.90;;;;;;4994302;28;20033;-66
2022/12/10 06:38:33;;;;;;;18.92;8.30;;;2.50;99.90;;;;;;4993862;28;20019;-67
2022/12/10 06:40:58;;;;;;;18.42;8.77;;;2.40;99.90;;;;;;4994011;28;20102;-66
2022/12/10 06:43:24;;;;;;;17.92;8.82;;;2.40;99.90;;;;;;4992774;28;20109;-66
2022/12/10 06:45:50;;;;;;;19.30;8.20;;;2.50;99.90;;;;;;4994469;28;20030;-66
2022/12/10 06:48:15;;;;;;;23.58;10.15;;;2.50;99.90;;;;;;4992752;28;20172;-67
2022/12/10 06:50:41;;;;;;;18.48;8.50;;;2.40;99.90;;;;;;4992566;28;20018;-66
2022/12/10 06:53:06;;;;;;;21.75;10.13;;;2.40;99.90;;;;;;4992635;28;20025;-66
2022/12/10 06:55:32;;;;;;;21.98;9.98;;;2.30;99.90;;;;;;4994120;28;20105;-66
2022/12/10 06:57:58;;;;;;;18.85;9.60;;;2.30;99.90;;;;;;4993792;28;20045;-66
2022/12/10 07:00:23;;;;;;;22.58;9.60;;;2.30;99.90;;;;;;4993905;28;20085;-66
2022/12/10 07:02:49;;;;;;;19.88;9.18;;;2.30;99.90;;;;;;4995315;28;20034;-66
2022/12/10 07:05:15;;;;;;;21.35;9.75;;;2.10;99.90;;;;;;4996553;28;20027;-66
2022/12/10 07:07:42;;;;;;;24.45;10.05;;;2.10;99.90;;;;;;4997000;28;20026;-66
2022/12/10 07:10:08;;;;;;;21.73;9.68;;;2.10;99.90;;;;;;4997880;28;20026;-66
2022/12/10 07:12:33;;;;;;;24.15;10.30;;;2.10;99.90;;;;;;4996781;28;20049;-67
2022/12/10 07:14:59;;;;;;;21.77;9.70;;;2.10;99.90;;;;;;4996299;28;20023;-66
2022/12/10 07:17:24;;;;;;;23.63;9.20;;;2.20;99.90;;;;;;4997418;28;20034;-67
2022/12/10 07:19:50;;;;;;;23.92;10.50;;;2.20;99.90;;;;;;4996202;28;20030;-66
2022/12/10 07:22:15;;;;;;;29.05;11.40;;;2.20;99.90;;;;;;4997691;28;20080;-66
2022/12/10 07:24:41;;;;;;;25.42;10.52;;;2.30;99.90;;;;;;4997302;28;20104;-66
2022/12/10 07:27:07;;;;;;;25.42;10.68;;;2.40;99.90;;;;;;4995952;28;20397;-67
2022/12/10 07:29:33;;;;;;;21.75;9.80;;;2.50;99.90;;;;;;4996009;28;20034;-66
2022/12/10 07:31:59;;;;;;;20.90;9.07;;;2.50;99.90;;;;;;4997185;28;20101;-66
2022/12/10 07:34:25;;;;;;;22.35;10.23;;;2.60;99.90;;;;;;4995968;28;20208;-66
2022/12/10 07:36:50;;;;;;;23.95;9.75;;;2.60;99.90;;;;;;4997135;28;20433;-66
2022/12/10 07:39:19;;;;;;;16.35;7.93;;;2.50;99.90;;;;;;4997014;28;20025;-66
2022/12/10 07:41:52;;;;;;;22.65;9.95;;;2.50;99.90;;;;;;4997182;28;20039;-66
2022/12/10 07:44:19;;;;;;;25.02;9.07;;;2.60;99.90;;;;;;4996384;28;20022;-66
2022/12/10 07:46:45;;;;;;;21.45;9.52;;;2.50;99.90;;;;;;4997437;28;20026;-66
2022/12/10 07:49:10;;;;;;;22.88;9.60;;;2.50;99.90;;;;;;4996888;28;20018;-66
2022/12/10 07:51:36;;;;;;;19.85;8.90;;;2.60;99.90;;;;;;4995983;28;20397;-66
2022/12/10 07:54:02;;;;;;;20.60;8.63;;;2.50;99.90;;;;;;4995948;28;20073;-66
2022/12/10 07:56:28;;;;;;;21.88;9.60;;;2.50;99.90;;;;;;4997328;28;20023;-66
2022/12/10 07:58:54;;;;;;;16.88;8.15;;;2.40;99.90;;;;;;4995794;28;20129;-67
2022/12/10 08:01:24;;;;;;;18.95;8.55;;;2.40;99.90;;;;;;4997001;28;20030;-67
2022/12/10 08:03:50;;;;;;;19.98;7.68;;;2.40;99.90;;;;;;4995879;28;20026;-66
2022/12/10 08:06:18;;;;;;;17.42;8.13;;;2.40;99.90;;;;;;4997764;28;20038;-66
2022/12/10 08:08:44;;;;;;;16.23;7.72;;;2.50;99.90;;;;;;4995401;28;20037;-67
2022/12/10 08:11:11;;;;;;;19.55;8.60;;;2.40;99.90;;;;;;4996482;28;20082;-66
2022/12/10 08:13:37;;;;;;;16.80;7.88;;;2.50;99.90;;;;;;4994974;28;20057;-66
2022/12/10 08:16:10;;;;;;;19.30;8.90;;;2.50;99.90;;;;;;4995226;28;20489;-66
2022/12/10 08:18:37;;;;;;;19.55;8.30;;;2.50;99.90;;;;;;4996717;28;20030;-66
2022/12/10 08:21:07;;;;;;;16.75;7.55;;;2.40;99.90;;;;;;4995082;28;20104;-66
2022/12/10 08:23:33;;;;;;;16.35;7.78;;;2.40;99.90;;;;;;4995115;28;20113;-66
2022/12/10 08:26:03;;;;;;;22.25;9.20;;;2.30;99.90;;;;;;4996238;28;20031;-66
2022/12/10 08:28:28;;;;;;;19.50;8.73;;;2.30;99.90;;;;;;4994818;28;20073;-66
2022/12/10 08:30:54;;;;;;;18.98;8.90;;;2.30;99.90;;;;;;4995186;28;20104;-66
2022/12/10 08:33:19;;;;;;;17.70;8.70;;;2.10;99.90;;;;;;4994941;28;20022;-66
2022/12/10 08:35:45;;;;;;;20.35;8.68;;;2.20;99.90;;;;;;4995083;28;20077;-66
2022/12/10 08:38:10;;;;;;;16.52;7.97;;;2.30;99.90;;;;;;4995890;28;20035;-66
2022/12/10 08:40:40;;;;;;;21.90;9.52;;;2.30;99.90;;;;;;4995532;28;20033;-66
2022/12/10 08:43:06;;;;;;;22.17;9.05;;;2.30;99.90;;;;;;4996128;28;20026;-66
2022/12/10 08:45:31;;;;;;;17.05;8.27;;;2.20;99.90;;;;;;4994687;28;20026;-66
2022/12/10 08:47:57;;;;;;;22.25;9.77;;;2.20;99.90;;;;;;4995642;28;20100;-66
2022/12/10 08:50:22;;;;;;;16.20;8.00;;;2.30;99.90;;;;;;4994543;28;20050;-66
2022/12/10 08:52:48;;;;;;;18.55;7.70;;;2.20;99.90;;;;;;4994545;28;20022;-66
2022/12/10 08:55:13;;;;;;;20.40;8.88;;;2.30;99.90;;;;;;4994279;28;20130;-66
2022/12/10 08:57:39;;;;;;;18.88;8.45;;;2.30;99.90;;;;;;4994195;28;20117;-66
2022/12/10 09:00:05;;;;;;;19.73;8.38;;;2.30;99.90;;;;;;4994436;28;20035;-66
2022/12/10 09:02:31;;;;;;;64.15;11.65;;;2.40;99.90;;;;;;4996119;28;20034;-66
2022/12/10 09:04:56;;;;;;;22.38;8.38;;;2.30;99.90;;;;;;4995484;28;20034;-66
2022/12/10 09:07:22;;;;;;;18.30;8.43;;;2.40;99.90;;;;;;4994347;28;20065;-66
2022/12/10 09:09:47;;;;;;;25.15;9.32;;;2.30;99.90;;;;;;4995755;28;20022;-66
2022/12/10 09:12:13;;;;;;;29.60;9.38;;;2.30;99.90;;;;;;4994085;28;20034;-66
2022/12/10 09:14:40;;;;;;;26.83;8.88;;;2.40;99.90;;;;;;4995351;28;20108;-66
2022/12/10 09:17:06;;;;;;;19.52;8.98;;;2.30;99.90;;;;;;4993920;28;20034;-67
2022/12/10 09:19:31;;;;;;;22.17;9.55;;;2.30;99.90;;;;;;4994260;28;20026;-66
2022/12/10 09:21:57;;;;;;;19.80;8.55;;;2.30;99.90;;;;;;4994511;28;20026;-66
2022/12/10 09:24:22;;;;;;;18.02;8.25;;;2.30;99.90;;;;;;4993831;28;20026;-66
2022/12/10 09:26:48;;;;;;;22.02;9.05;;;2.40;99.90;;;;;;4992681;28;20508;-66
2022/12/10 09:29:13;;;;;;;20.10;8.80;;;2.40;99.90;;;;;;4993746;28;20037;-66
2022/12/10 09:31:39;;;;;;;20.23;8.88;;;2.30;99.90;;;;;;4993758;28;20027;-67
2022/12/10 09:34:04;;;;;;;16.73;8.20;;;2.40;99.90;;;;;;4993665;28;20022;-66
2022/12/10 09:36:30;;;;;;;22.33;8.93;;;2.50;99.90;;;;;;4994857;28;20092;-67
2022/12/10 09:38:55;;;;;;;20.55;8.10;;;2.50;99.90;;;;;;4994355;28;20061;-67
2022/12/10 09:41:47;;;;;;;18.98;8.45;;;2.50;99.90;;;;;;4994870;28;20026;-67
2022/12/10 09:44:35;;;;;;;18.55;8.18;;;2.60;99.90;;;;;;4993662;28;20036;-66
2022/12/10 09:47:05;;;;;;;16.95;8.73;;;2.60;99.90;;;;;;4994690;28;20030;-66
2022/12/10 09:49:37;;;;;;;13.38;6.82;;;2.70;99.90;;;;;;4993432;28;20029;-66
2022/12/10 09:52:06;;;;;;;18.67;8.02;;;2.80;99.90;;;;;;4994773;28;20026;-66
2022/12/10 09:54:42;;;;;;;15.65;7.07;;;2.90;99.90;;;;;;4993705;28;20109;-66
2022/12/10 09:57:16;;;;;;;16.58;7.88;;;2.90;99.90;;;;;;4994493;28;20105;-67
2022/12/10 09:59:47;;;;;;;16.63;7.93;;;2.90;99.90;;;;;;4993914;28;20029;-67
2022/12/10 10:02:21;;;;;;;15.68;8.52;;;2.90;99.90;;;;;;4993341;28;20030;-66
2022/12/10 10:04:48;;;;;;;15.82;7.78;;;3.00;99.90;;;;;;4993893;28;20089;-66
2022/12/10 10:07:27;;;;;;;14.38;7.25;;;3.10;99.90;;;;;;4994284;28;20058;-66
2022/12/10 10:10:00;;;;;;;14.60;7.35;;;3.20;99.90;;;;;;4994388;28;20039;-66
2022/12/10 10:12:31;;;;;;;17.38;8.13;;;3.30;99.90;;;;;;4994700;28;20034;-66
2022/12/10 10:14:57;;;;;;;14.20;7.40;;;3.20;99.90;;;;;;4993588;28;20022;-67
2022/12/10 10:17:30;;;;;;;13.38;6.78;;;3.30;99.90;;;;;;4994221;28;20027;-66
2022/12/10 10:19:58;;;;;;;13.93;7.05;;;3.30;99.90;;;;;;4994416;28;20086;-66
2022/12/10 10:22:26;;;;;;;14.00;7.18;;;3.50;99.90;;;;;;4992878;28;20080;-66
2022/12/10 10:24:52;;;;;;;15.75;7.75;;;3.60;99.90;;;;;;4994513;28;20023;-66
2022/12/10 10:27:20;;;;;;;16.05;7.13;;;3.70;99.90;;;;;;4993076;28;20037;-66
2022/12/10 10:29:51;;;;;;;15.23;7.10;;;3.70;99.90;;;;;;4992802;28;20026;-66
2022/12/10 10:32:49;;;;;;;16.80;7.30;;;3.90;99.90;;;;;;4993107;28;20026;-66
2022/12/10 10:35:47;;;;;;;17.98;7.85;;;4.00;99.90;;;;;;4993539;28;20026;-66
2022/12/10 10:38:23;;;;;;;13.18;6.03;;;4.20;99.90;;;;;;4991974;28;20041;-66
2022/12/10 10:40:56;;;;;;;16.58;6.90;;;4.10;99.90;;;;;;4992713;28;20026;-66
2022/12/10 10:43:25;;;;;;;17.17;7.55;;;4.10;99.90;;;;;;4992854;28;20031;-66
2022/12/10 10:46:07;;;;;;;12.20;6.50;;;4.20;99.90;;;;;;4993313;28;20022;-66
2022/12/10 10:48:32;;;;;;;11.60;6.40;;;4.20;99.90;;;;;;4992625;28;20030;-66
2022/12/10 10:51:11;;;;;;;16.67;7.55;;;4.30;99.90;;;;;;4993435;28;20026;-66
2022/12/10 10:53:47;;;;;;;15.27;7.10;;;4.60;99.90;;;;;;4993874;28;20018;-66
2022/12/10 10:56:25;;;;;;;17.25;7.45;;;4.60;99.90;;;;;;4994142;28;20026;-66
2022/12/10 10:59:00;;;;;;;15.25;7.18;;;4.80;99.90;;;;;;4994167;28;20490;-66
2022/12/10 11:01:44;;;;;;;16.02;6.70;;;4.80;99.90;;;;;;4993455;28;20031;-66
2022/12/10 11:04:10;;;;;;;12.68;6.63;;;4.80;99.90;;;;;;4992582;28;20037;-66
2022/12/10 11:06:36;;;;;;;20.38;8.07;;;4.70;99.90;;;;;;4993758;28;20034;-66
2022/12/10 11:09:04;;;;;;;17.83;7.43;;;4.60;99.90;;;;;;4993681;28;20090;-66
2022/12/10 11:11:40;;;;;;;15.05;7.18;;;4.70;99.90;;;;;;4992555;28;20026;-66
2022/12/10 11:14:29;;;;;;;21.33;7.75;;;4.60;99.90;;;;;;4993049;28;20044;-66
2022/12/10 11:17:20;;;;;;;14.43;7.25;;;4.70;99.90;;;;;;4993728;28;20035;-66
2022/12/10 11:20:15;;;;;;;13.80;7.03;;;4.80;99.90;;;;;;4993209;28;20536;-66
2022/12/10 11:22:49;;;;;;;15.02;7.43;;;4.90;99.90;;;;;;4992336;28;20019;-66
2022/12/10 11:25:15;;;;;;;12.15;6.38;;;5.10;99.90;;;;;;4993649;28;20026;-66
2022/12/10 11:27:47;;;;;;;14.80;7.00;;;5.20;99.90;;;;;;4992180;28;20022;-66
2022/12/10 11:30:21;;;;;;;17.80;7.38;;;5.10;99.90;;;;;;4993923;28;20018;-66
2022/12/10 11:33:12;;;;;;;13.55;6.20;;;5.30;99.90;;;;;;4992282;28;20018;-66
2022/12/10 11:36:07;;;;;;;12.55;6.50;;;5.60;99.90;;;;;;4993708;28;20057;-66
2022/12/10 11:38:41;;;;;;;13.30;6.68;;;5.60;99.90;;;;;;4993525;28;20085;-66
2022/12/10 11:41:22;;;;;;;13.60;5.30;;;5.50;99.90;;;;;;4992547;28;20545;-66
2022/12/10 11:43:54;;;;;;;11.80;5.60;;;5.60;99.90;;;;;;4993614;28;20030;-66
2022/12/10 11:46:56;;;;;;;14.13;5.90;;;5.40;99.90;;;;;;4992423;28;20098;-66
2022/12/10 11:49:50;;;;;;;11.48;5.68;;;5.60;99.90;;;;;;4994296;28;20030;-66
2022/12/10 11:52:20;;;;;;;12.13;5.75;;;5.60;99.90;;;;;;4997216;28;20038;-66
2022/12/10 11:54:49;;;;;;;10.07;4.97;;;5.70;99.90;;;;;;4995641;28;20026;-66
2022/12/10 11:57:20;;;;;;;9.32;5.75;;;5.90;99.90;;;;;;4996494;28;20026;-66
2022/12/10 12:00:30;;;;;;;12.45;6.05;;;5.90;99.90;;;;;;5019617;23;20046;-67
2022/12/10 12:03:32;;;;;;;10.75;5.65;;;6.00;99.90;;;;;;4994285;28;20089;-68
2022/12/10 12:06:10;;;;;;;;;;;6.20;99.90;;;;;;4996795;28;20122;-68
2022/12/10 12:09:01;;;;;;;12.85;6.13;;;6.00;99.90;;;;;;4995314;28;19957;-68
2022/12/10 12:11:42;;;;;;;10.07;5.65;;;6.00;99.90;;;;;;4995398;28;20026;-68
2022/12/10 12:14:16;;;;;;;9.75;5.63;;;6.30;99.90;;;;;;4995958;28;20034;-68
2022/12/10 12:17:03;;;;;;;9.90;5.43;;;6.30;99.90;;;;;;4995389;28;20026;-68
2022/12/10 12:19:42;;;;;;;9.18;5.05;;;6.50;99.90;;;;;;4995796;28;20034;-68
2022/12/10 12:22:22;;;;;;;14.35;6.68;;;6.50;99.90;;;;;;4996770;28;20038;-68
2022/12/10 12:24:50;;;;;;;10.27;5.50;;;6.10;99.90;;;;;;4995171;28;20118;-68
2022/12/10 12:27:25;;;;;;;10.30;5.30;;;5.80;99.90;;;;;;4996252;28;20037;-68
2022/12/10 12:29:57;;;;;;;10.15;5.75;;;5.40;99.90;;;;;;4995165;28;20105;-68
2022/12/10 12:32:57;;;;;;;9.40;4.88;;;5.30;99.90;;;;;;4995169;28;20023;-68
2022/12/10 12:35:43;;;;;;;10.43;5.25;;;5.20;99.90;;;;;;4997814;28;20029;-68
2022/12/10 12:38:28;;;;;;;9.50;5.10;;;5.50;99.90;;;;;;4994820;28;20033;-68
2022/12/10 12:40:56;;;;;;;9.23;5.22;;;5.40;99.90;;;;;;4994926;28;20023;-68
2022/12/10 12:43:53;;;;;;;10.55;5.07;;;5.70;99.90;;;;;;4994995;28;20030;-68
2022/12/10 12:46:29;;;;;;;11.18;6.03;;;5.70;99.90;;;;;;4981495;28;20038;-68
2022/12/10 12:49:10;;;;;;;10.95;5.78;;;5.70;99.90;;;;;;4994571;28;20053;-68
2022/12/10 12:51:45;;;;;;;13.00;6.43;;;5.50;99.90;;;;;;4994733;28;20023;-68
2022/12/10 12:54:12;;;;;;;13.15;6.28;;;5.20;99.90;;;;;;4994721;28;20103;-68
2022/12/10 12:56:58;;;;;;;13.77;5.65;;;5.20;99.90;;;;;;4994410;28;20023;-68
2022/12/10 12:59:30;;;;;;;14.50;5.90;;;5.00;99.90;;;;;;4995576;28;20072;-68
2022/12/10 13:02:36;;;;;;;15.60;7.10;;;4.70;99.90;;;;;;4995780;28;20022;-68
2022/12/10 13:05:03;;;;;;;14.60;6.40;;;4.70;99.90;;;;;;4994927;28;20053;-68
2022/12/10 13:07:30;;;;;;;13.65;6.35;;;4.50;99.90;;;;;;4994599;28;20042;-68
2022/12/10 13:10:23;;;;;;;13.77;6.25;;;4.80;99.90;;;;;;4995421;28;20033;-68
2022/12/10 13:13:04;;;;;;;15.85;6.72;;;4.70;99.90;;;;;;4994270;28;20113;-68
2022/12/10 13:15:38;;;;;;;12.40;6.38;;;4.70;99.90;;;;;;4995024;28;20069;-68
2022/12/10 13:18:04;;;;;;;14.52;6.05;;;4.60;99.90;;;;;;4995336;28;20022;-67